Time;durP1;ratioP1;P1;durP2;ratioP2;P2;SDS_P1;SDS_P2;PMS_P1;PMS_P2;Temp;Humidity;BMP_temperature;BMP_pressure;BME280_temperature;BME280_humidity;BME280_pressure;Samples;Min_cycle;Max_cycle;Signal;HPM_P1;HPM_P2
2023/12/26 00:00:08;;;;;;;2.65;0.50;;;10.70;99.90;;;;;;7364489;32;20174;-55
2023/12/26 00:04:09;;;;;;;1.23;0.43;;;10.80;99.90;;;;;;7360332;32;20263;-56
2023/12/26 00:08:11;;;;;;;2.12;0.50;;;10.80;99.90;;;;;;7363346;32;20201;-56
2023/12/26 00:12:13;;;;;;;0.60;0.30;;;10.80;99.90;;;;;;7368096;32;20225;-56
2023/12/26 00:16:15;;;;;;;0.90;0.30;;;10.80;99.90;;;;;;7354783;32;20774;-55
2023/12/26 00:20:17;;;;;;;1.45;0.20;;;10.80;99.90;;;;;;7370413;32;20099;-57
2023/12/26 00:24:19;;;;;;;0.45;0.20;;;10.80;99.90;;;;;;7360896;32;20162;-55
2023/12/26 00:28:21;;;;;;;0.47;0.30;;;10.80;99.90;;;;;;7359007;32;20600;-55
2023/12/26 00:32:22;;;;;;;0.73;0.40;;;10.80;99.90;;;;;;7364080;32;20245;-56
2023/12/26 00:36:24;;;;;;;0.80;0.30;;;10.80;99.90;;;;;;7359274;32;20505;-55
2023/12/26 00:40:26;;;;;;;0.70;0.30;;;10.80;99.90;;;;;;7355267;32;20114;-56
2023/12/26 00:44:28;;;;;;;2.85;0.20;;;10.80;99.90;;;;;;7359550;32;20111;-55
2023/12/26 00:48:30;;;;;;;1.02;0.30;;;10.80;99.90;;;;;;7358600;32;20108;-55
2023/12/26 00:52:32;;;;;;;0.30;0.20;;;10.80;99.90;;;;;;7362819;32;20208;-57
2023/12/26 00:56:34;;;;;;;1.80;0.30;;;10.80;99.90;;;;;;7365401;32;20137;-56
2023/12/26 01:00:36;;;;;;;1.40;0.30;;;10.70;99.90;;;;;;7362784;32;20483;-57
2023/12/26 01:04:37;;;;;;;0.47;0.17;;;10.70;99.90;;;;;;7352302;32;20182;-57
2023/12/26 01:08:39;;;;;;;0.73;0.20;;;10.70;99.90;;;;;;7357818;32;20860;-55
2023/12/26 01:12:41;;;;;;;0.85;0.20;;;10.70;99.90;;;;;;7359544;32;20106;-56
2023/12/26 01:16:45;;;;;;;0.52;0.20;;;10.70;99.90;;;;;;7357883;32;20155;-56
2023/12/26 01:20:47;;;;;;;0.75;0.40;;;10.70;99.90;;;;;;7363126;32;20123;-55
2023/12/26 01:24:51;;;;;;;2.50;0.40;;;10.70;99.90;;;;;;7364359;32;20111;-57
2023/12/26 01:28:52;;;;;;;2.08;0.20;;;10.60;99.90;;;;;;7359082;32;21844;-55
2023/12/26 01:32:54;;;;;;;3.03;0.40;;;10.50;99.90;;;;;;7366176;32;20162;-57
2023/12/26 01:36:56;;;;;;;2.15;0.40;;;10.40;99.90;;;;;;7358871;32;20164;-58
2023/12/26 01:40:58;;;;;;;1.42;0.40;;;10.30;99.90;;;;;;7362373;32;20188;-58
2023/12/26 01:45:00;;;;;;;2.05;0.40;;;10.30;99.90;;;;;;7368655;32;20110;-56
2023/12/26 01:49:03;;;;;;;1.02;0.50;;;10.10;99.90;;;;;;7364974;32;20106;-57
2023/12/26 01:53:05;;;;;;;2.00;0.40;;;10.00;99.90;;;;;;7358411;32;20282;-57
2023/12/26 01:57:07;;;;;;;2.35;0.60;;;9.90;99.90;;;;;;7357857;32;20287;-58
2023/12/26 02:01:11;;;;;;;0.80;0.47;;;9.90;99.90;;;;;;7365302;32;20119;-56
2023/12/26 02:05:14;;;;;;;0.70;0.43;;;9.90;99.90;;;;;;7363023;32;20133;-56
2023/12/26 02:09:16;;;;;;;0.80;0.40;;;9.80;99.90;;;;;;7366151;32;20201;-56
2023/12/26 02:13:17;;;;;;;2.53;0.65;;;9.80;99.90;;;;;;7358587;32;20153;-57
2023/12/26 02:17:23;;;;;;;2.00;0.50;;;9.80;99.90;;;;;;7362146;32;20111;-57
2023/12/26 02:21:25;;;;;;;3.35;0.60;;;9.70;99.90;;;;;;7362111;32;20186;-56
2023/12/26 02:25:27;;;;;;;1.37;0.40;;;9.70;99.90;;;;;;7368013;32;20218;-56
2023/12/26 02:29:30;;;;;;;1.90;0.80;;;9.70;99.90;;;;;;7358797;32;20490;-56
2023/12/26 02:33:33;;;;;;;1.37;0.32;;;9.70;99.90;;;;;;7350802;32;20299;-57
2023/12/26 02:37:36;;;;;;;1.85;0.50;;;9.60;99.90;;;;;;7363793;32;20130;-56
2023/12/26 02:41:38;;;;;;;1.58;0.50;;;9.60;99.90;;;;;;7357406;32;20131;-56
2023/12/26 02:45:41;;;;;;;1.90;0.55;;;9.60;99.90;;;;;;7359355;32;20519;-56
2023/12/26 02:49:42;;;;;;;2.95;0.62;;;9.60;99.90;;;;;;7357805;32;20201;-56
2023/12/26 02:53:44;;;;;;;1.52;0.40;;;9.60;99.90;;;;;;7359709;32;20103;-57
2023/12/26 02:57:46;;;;;;;1.48;0.37;;;9.50;99.90;;;;;;7359023;32;20147;-57
2023/12/26 03:01:48;;;;;;;1.45;0.40;;;9.50;99.90;;;;;;7352430;32;20122;-56
2023/12/26 03:05:50;;;;;;;1.05;0.60;;;9.50;99.90;;;;;;7362790;32;20565;-56
2023/12/26 03:09:52;;;;;;;2.50;0.50;;;9.50;99.90;;;;;;7365509;32;22130;-55
2023/12/26 03:13:54;;;;;;;2.78;0.60;;;9.50;99.90;;;;;;7363215;32;20111;-56
2023/12/26 03:17:56;;;;;;;1.17;0.70;;;9.50;99.90;;;;;;7365471;32;20259;-57
2023/12/26 03:21:58;;;;;;;2.15;0.80;;;9.50;99.90;;;;;;7363660;32;20225;-56
2023/12/26 03:25:59;;;;;;;0.62;0.50;;;9.50;99.90;;;;;;7364031;32;20225;-56
2023/12/26 03:30:02;;;;;;;2.87;0.60;;;9.50;99.90;;;;;;7356820;32;20167;-57
2023/12/26 03:34:03;;;;;;;3.85;0.52;;;9.50;99.90;;;;;;7358814;32;20628;-56
2023/12/26 03:38:05;;;;;;;1.73;0.50;;;9.50;99.90;;;;;;7365455;32;20095;-56
2023/12/26 03:42:08;;;;;;;1.25;1.00;;;9.50;99.90;;;;;;7363635;32;20107;-57
2023/12/26 03:46:10;;;;;;;1.17;0.70;;;9.50;99.90;;;;;;7360355;32;20284;-57
2023/12/26 03:50:11;;;;;;;1.52;0.70;;;9.50;99.90;;;;;;7364934;32;20148;-57
2023/12/26 03:54:14;;;;;;;2.45;0.70;;;9.50;99.90;;;;;;7367570;32;20214;-56
2023/12/26 03:58:16;;;;;;;0.95;0.70;;;9.50;99.90;;;;;;7363932;32;20174;-54
2023/12/26 04:02:18;;;;;;;2.15;0.70;;;9.50;99.90;;;;;;7366127;32;20199;-55
2023/12/26 04:06:20;;;;;;;3.30;0.85;;;9.50;99.90;;;;;;7360581;32;20706;-56
2023/12/26 04:10:21;;;;;;;1.80;0.90;;;9.50;99.90;;;;;;7364111;32;20601;-56
2023/12/26 04:14:23;;;;;;;1.80;1.00;;;9.50;99.90;;;;;;7360315;32;20171;-55
2023/12/26 04:18:25;;;;;;;3.03;1.15;;;9.50;99.90;;;;;;7362381;32;20937;-55
2023/12/26 04:22:27;;;;;;;2.92;1.48;;;9.50;99.90;;;;;;7361391;32;20107;-57
2023/12/26 04:26:29;;;;;;;2.30;0.80;;;9.50;99.90;;;;;;7366057;32;20138;-56
2023/12/26 04:30:31;;;;;;;2.80;1.20;;;9.50;99.90;;;;;;7362214;32;20482;-55
2023/12/26 04:34:33;;;;;;;3.95;1.00;;;9.50;99.90;;;;;;7363161;32;20341;-56
2023/12/26 04:38:34;;;;;;;5.05;1.05;;;9.50;99.90;;;;;;7352951;32;20133;-55
2023/12/26 04:42:36;;;;;;;1.62;0.88;;;9.60;99.90;;;;;;7360042;32;20244;-57
2023/12/26 04:46:38;;;;;;;1.95;1.00;;;9.60;99.90;;;;;;7356793;32;20186;-56
2023/12/26 04:50:40;;;;;;;3.17;0.98;;;9.60;99.90;;;;;;7366196;32;20504;-57
2023/12/26 04:54:41;;;;;;;0.30;0.22;;;9.50;99.90;;;;;;7358454;32;20174;-55
2023/12/26 04:58:47;;;;;;;2.20;0.43;;;9.20;99.90;;;;;;7360874;32;20126;-56
2023/12/26 05:02:50;;;;;;;3.33;0.40;;;9.10;99.90;;;;;;7367311;32;20124;-55
2023/12/26 05:06:52;;;;;;;4.53;0.50;;;9.10;99.90;;;;;;7362605;32;20094;-55
2023/12/26 05:10:53;;;;;;;2.62;0.40;;;9.00;99.90;;;;;;7364473;32;20501;-55
2023/12/26 05:14:55;;;;;;;1.60;0.50;;;9.00;99.90;;;;;;7357603;32;20149;-55
2023/12/26 05:18:57;;;;;;;4.32;0.55;;;9.00;99.90;;;;;;7361001;32;20348;-56
2023/12/26 05:22:59;;;;;;;1.10;0.30;;;9.10;99.90;;;;;;7370713;32;20125;-57
2023/12/26 05:27:01;;;;;;;0.30;0.20;;;9.10;99.90;;;;;;7361475;32;20476;-56
2023/12/26 05:31:04;;;;;;;1.45;0.40;;;9.10;99.90;;;;;;7362889;32;20266;-56
2023/12/26 05:35:06;;;;;;;1.67;0.75;;;9.10;99.90;;;;;;7363001;32;20099;-56
2023/12/26 05:39:08;;;;;;;1.35;0.40;;;9.10;99.90;;;;;;7366716;32;20249;-56
2023/12/26 05:43:10;;;;;;;2.10;0.40;;;9.20;99.90;;;;;;7363112;32;20174;-57
2023/12/26 05:47:12;;;;;;;1.37;0.43;;;9.20;99.90;;;;;;7356651;32;20162;-56
2023/12/26 05:51:14;;;;;;;1.75;0.50;;;9.20;99.90;;;;;;7361102;32;20178;-56
2023/12/26 05:55:16;;;;;;;0.62;0.43;;;9.30;99.90;;;;;;7352363;32;20440;-56
2023/12/26 05:59:18;;;;;;;2.80;0.50;;;9.30;99.90;;;;;;7355540;32;20412;-56
2023/12/26 06:03:20;;;;;;;2.15;0.70;;;9.30;99.90;;;;;;7359528;32;20184;-55
2023/12/26 06:07:22;;;;;;;2.35;0.95;;;9.30;99.90;;;;;;7360992;32;20353;-56
2023/12/26 06:11:24;;;;;;;3.15;1.20;;;9.40;99.90;;;;;;7361062;32;20217;-57
2023/12/26 06:15:26;;;;;;;4.97;1.35;;;9.40;99.90;;;;;;7361512;32;20585;-57
2023/12/26 06:19:27;;;;;;;4.70;1.30;;;9.50;99.90;;;;;;7354321;32;20144;-56
2023/12/26 06:23:31;;;;;;;3.95;1.55;;;9.50;99.90;;;;;;7355052;32;20115;-55
2023/12/26 06:27:32;;;;;;;4.43;1.67;;;9.50;99.90;;;;;;7358923;32;20644;-56
2023/12/26 06:31:34;;;;;;;4.03;1.77;;;9.50;99.90;;;;;;7362211;32;20515;-55
2023/12/26 06:35:38;;;;;;;4.10;1.35;;;9.40;99.90;;;;;;7352323;32;20190;-55
2023/12/26 06:39:40;;;;;;;5.35;1.80;;;9.50;99.90;;;;;;7358784;32;20207;-54
2023/12/26 06:43:42;;;;;;;5.70;1.60;;;9.30;99.90;;;;;;7364662;32;20639;-56
2023/12/26 06:47:43;;;;;;;5.10;1.77;;;9.40;99.90;;;;;;7365446;32;20118;-55
2023/12/26 06:51:46;;;;;;;4.60;1.98;;;9.40;99.90;;;;;;7358856;32;20129;-55
2023/12/26 06:55:47;;;;;;;2.95;1.55;;;9.40;99.90;;;;;;7357145;32;20274;-54
2023/12/26 06:59:52;;;;;;;8.13;2.08;;;9.30;99.90;;;;;;7361366;32;20183;-55
2023/12/26 07:03:54;;;;;;;4.28;1.77;;;9.40;99.90;;;;;;7357934;32;20499;-55
2023/12/26 07:07:56;;;;;;;5.65;1.52;;;9.40;99.90;;;;;;7368112;32;20118;-54
2023/12/26 07:11:58;;;;;;;2.47;1.62;;;9.40;99.90;;;;;;7361137;32;20127;-55
2023/12/26 07:16:00;;;;;;;5.00;1.77;;;9.30;99.90;;;;;;7361449;32;20107;-55
2023/12/26 07:20:02;;;;;;;4.45;1.70;;;9.30;99.90;;;;;;7362346;32;20134;-55
2023/12/26 07:24:04;;;;;;;4.82;1.62;;;9.30;99.90;;;;;;7365564;32;20156;-55
2023/12/26 07:28:06;;;;;;;6.72;1.50;;;9.30;99.90;;;;;;7371538;32;20162;-54
2023/12/26 07:32:08;;;;;;;6.60;1.52;;;9.20;99.90;;;;;;7366142;32;20520;-56
2023/12/26 07:36:10;;;;;;;6.10;1.12;;;9.20;99.90;;;;;;7366871;32;20203;-56
2023/12/26 07:40:13;;;;;;;6.70;1.23;;;9.10;99.90;;;;;;7361600;32;20126;-56
2023/12/26 07:44:15;;;;;;;4.37;1.02;;;9.10;99.90;;;;;;7359446;32;20767;-57
2023/12/26 07:48:16;;;;;;;7.75;1.12;;;9.10;99.90;;;;;;7363445;32;20232;-58
2023/12/26 07:52:18;;;;;;;3.75;1.35;;;9.10;99.90;;;;;;7360850;32;20179;-58
2023/12/26 07:56:20;;;;;;;4.07;1.00;;;9.10;99.90;;;;;;7362617;32;20307;-57
2023/12/26 08:00:22;;;;;;;8.90;0.98;;;9.10;99.90;;;;;;7361597;32;20269;-57
2023/12/26 08:04:24;;;;;;;4.80;0.90;;;8.90;99.90;;;;;;7361595;32;20099;-56
2023/12/26 08:08:25;;;;;;;10.20;1.25;;;8.90;99.90;;;;;;7363846;32;20578;-56
2023/12/26 08:12:27;;;;;;;4.12;0.70;;;8.90;99.90;;;;;;7360025;32;20201;-57
2023/12/26 08:16:29;;;;;;;6.47;1.10;;;8.90;99.90;;;;;;7362052;32;20559;-58
2023/12/26 08:20:33;;;;;;;9.68;0.93;;;8.90;99.90;;;;;;7358453;32;20175;-57
2023/12/26 08:24:35;;;;;;;4.97;0.88;;;8.80;99.90;;;;;;7362697;32;20198;-57
2023/12/26 08:28:37;;;;;;;5.93;0.95;;;8.80;99.90;;;;;;7366724;32;20507;-58
2023/12/26 08:32:38;;;;;;;7.32;0.90;;;8.80;99.90;;;;;;7356809;32;20166;-57
2023/12/26 08:36:40;;;;;;;6.57;0.70;;;8.80;99.90;;;;;;7361331;32;20160;-57
2023/12/26 08:40:42;;;;;;;3.65;0.85;;;8.80;99.90;;;;;;7362176;32;20153;-56
2023/12/26 08:44:44;;;;;;;4.75;0.90;;;8.70;99.90;;;;;;7357308;32;20343;-56
2023/12/26 08:48:46;;;;;;;3.90;0.70;;;8.80;99.90;;;;;;7364608;32;20161;-56
2023/12/26 08:52:48;;;;;;;6.90;0.75;;;8.70;99.90;;;;;;7357614;32;20110;-58
2023/12/26 08:56:49;;;;;;;7.15;1.42;;;8.70;99.90;;;;;;7349369;32;20574;-57
2023/12/26 09:00:51;;;;;;;7.70;1.48;;;8.80;99.90;;;;;;7360908;32;20153;-56
2023/12/26 09:04:53;;;;;;;8.95;0.82;;;8.90;99.90;;;;;;7363220;32;20182;-56
2023/12/26 09:08:55;;;;;;;9.50;1.00;;;8.90;99.90;;;;;;7356805;32;20171;-56
2023/12/26 09:12:57;;;;;;;8.05;1.20;;;8.90;99.90;;;;;;7359313;32;20446;-55
2023/12/26 09:16:59;;;;;;;5.60;0.88;;;9.00;99.90;;;;;;7361047;32;20248;-56
2023/12/26 09:21:01;;;;;;;4.22;0.73;;;9.00;99.90;;;;;;7360286;32;20218;-56
2023/12/26 09:25:03;;;;;;;6.95;1.00;;;9.10;99.90;;;;;;7362746;32;20223;-55
2023/12/26 09:29:05;;;;;;;9.57;0.93;;;9.10;99.90;;;;;;7357812;32;20722;-55
2023/12/26 09:33:06;;;;;;;6.37;1.15;;;9.30;99.90;;;;;;7356370;32;20098;-57
2023/12/26 09:37:08;;;;;;;7.25;1.17;;;9.30;99.90;;;;;;7361880;32;20236;-54
2023/12/26 09:41:13;;;;;;;9.27;1.37;;;9.20;99.90;;;;;;7357865;32;20233;-56
2023/12/26 09:45:15;;;;;;;6.80;0.75;;;9.10;99.90;;;;;;7351388;32;20576;-55
2023/12/26 09:49:17;;;;;;;6.03;0.80;;;9.10;99.90;;;;;;7358393;32;20668;-57
2023/12/26 09:53:23;;;;;;;5.20;0.80;;;9.20;99.90;;;;;;7360778;32;20098;-56
2023/12/26 09:57:25;;;;;;;4.45;0.65;;;9.10;99.90;;;;;;7356524;32;20216;-56
2023/12/26 10:01:27;;;;;;;4.60;1.35;;;9.20;99.90;;;;;;7356441;32;20104;-58
2023/12/26 10:05:29;;;;;;;5.15;1.23;;;9.30;99.90;;;;;;7354717;32;20095;-57
2023/12/26 10:09:31;;;;;;;8.30;1.95;;;9.40;99.90;;;;;;7355579;32;20221;-58
2023/12/26 10:13:49;;;;;;;5.30;1.20;;;9.50;99.90;;;;;;7361225;32;20099;-58
2023/12/26 10:17:51;;;;;;;6.62;1.25;;;9.60;99.90;;;;;;7357302;32;20157;-57
2023/12/26 10:21:53;;;;;;;7.00;1.37;;;9.50;99.90;;;;;;7352735;32;20193;-57
2023/12/26 10:25:55;;;;;;;4.97;1.15;;;9.40;99.90;;;;;;7355508;32;20107;-54
2023/12/26 10:29:57;;;;;;;7.20;1.12;;;9.30;99.90;;;;;;7361932;32;20139;-55
2023/12/26 10:34:19;;;;;;;7.20;1.20;;;9.20;99.90;;;;;;7361890;32;20125;-56
2023/12/26 10:38:22;;;;;;;7.70;1.30;;;9.10;99.90;;;;;;7351862;32;20126;-55
2023/12/26 10:42:24;;;;;;;8.32;1.10;;;9.10;99.90;;;;;;7356799;32;20241;-56
2023/12/26 10:46:26;;;;;;;6.55;1.20;;;9.00;99.90;;;;;;7353154;32;20689;-56
2023/12/26 10:50:31;;;;;;;15.13;1.20;;;9.00;99.90;;;;;;7362586;32;20111;-55
2023/12/26 10:54:37;;;;;;;6.93;1.40;;;8.90;99.90;;;;;;7359967;32;20228;-55
2023/12/26 10:58:40;;;;;;;8.07;1.17;;;8.90;99.90;;;;;;7358907;32;20257;-55
2023/12/26 13:53:22;;;;;;;8.00;1.35;;;9.30;99.90;;;;;;7353247;32;20536;-57
2023/12/26 13:58:01;;;;;;;3.50;0.73;;;9.30;99.90;;;;;;7340246;32;20134;-57
2023/12/26 14:02:41;;;;;;;9.95;1.35;;;9.30;99.90;;;;;;7348111;32;20182;-57
2023/12/26 14:07:21;;;;;;;12.00;1.40;;;9.20;99.90;;;;;;7342587;32;20311;-58
2023/12/26 14:12:01;;;;;;;13.32;1.58;;;9.20;99.90;;;;;;7345974;32;20592;-58
2023/12/26 14:16:40;;;;;;;4.95;1.17;;;9.10;99.90;;;;;;7345526;32;21100;-57
2023/12/26 14:21:19;;;;;;;14.57;1.50;;;9.10;99.90;;;;;;7359380;32;20238;-57
2023/12/26 14:25:59;;;;;;;7.62;1.15;;;9.10;99.90;;;;;;7357953;32;20249;-57
2023/12/26 14:30:39;;;;;;;4.62;1.08;;;9.00;99.90;;;;;;7359216;32;20623;-57
2023/12/26 14:35:18;;;;;;;9.63;1.30;;;8.90;99.90;;;;;;7354679;32;20182;-57
2023/12/26 14:39:58;;;;;;;10.23;1.25;;;9.00;99.90;;;;;;7358761;32;20129;-56
2023/12/26 14:44:37;;;;;;;7.45;1.33;;;9.00;99.90;;;;;;7359388;32;20110;-57
2023/12/26 14:49:17;;;;;;;8.73;1.80;;;9.00;99.90;;;;;;7359459;32;20666;-57
2023/12/26 14:53:57;;;;;;;4.85;1.08;;;9.00;99.90;;;;;;7357438;32;20134;-57
2023/12/26 14:58:36;;;;;;;10.07;1.62;;;9.00;99.90;;;;;;7357830;32;20529;-56
2023/12/26 15:02:38;;;;;;;7.15;1.27;;;9.00;99.90;;;;;;7361781;32;20220;-56
2023/12/26 15:06:41;;;;;;;11.90;1.60;;;9.00;99.90;;;;;;7355017;32;20231;-55
2023/12/26 15:10:43;;;;;;;12.32;1.70;;;9.00;99.90;;;;;;7365846;32;20150;-57
2023/12/26 15:14:45;;;;;;;10.32;1.55;;;9.00;99.90;;;;;;7373516;32;20273;-56
2023/12/26 15:18:50;;;;;;;8.65;1.67;;;9.10;99.90;;;;;;7368107;32;20154;-56
2023/12/26 15:22:52;;;;;;;8.77;1.73;;;9.10;99.90;;;;;;7353629;32;20805;-56
2023/12/26 15:26:54;;;;;;;9.43;1.73;;;9.00;99.90;;;;;;7361433;32;20226;-56
2023/12/26 15:30:57;;;;;;;6.45;2.45;;;9.10;99.90;;;;;;7368113;32;20131;-56
2023/12/26 15:35:00;;;;;;;9.50;2.08;;;9.00;99.90;;;;;;7364060;32;20271;-56
2023/12/26 15:39:02;;;;;;;10.25;1.65;;;9.00;99.90;;;;;;7359505;32;20107;-56
2023/12/26 15:43:04;;;;;;;5.95;1.50;;;9.00;99.90;;;;;;7362836;32;20657;-56
2023/12/26 15:47:08;;;;;;;4.87;1.52;;;9.00;99.90;;;;;;7358677;32;20111;-55
2023/12/26 15:51:10;;;;;;;7.28;2.28;;;8.90;99.90;;;;;;7366597;32;20703;-55
2023/12/26 15:55:12;;;;;;;12.57;1.80;;;8.90;99.90;;;;;;7367987;32;20103;-54
2023/12/26 15:59:14;;;;;;;8.93;1.58;;;8.90;99.90;;;;;;7364455;32;20159;-55
2023/12/26 16:03:16;;;;;;;10.25;1.30;;;8.90;99.90;;;;;;7361074;32;20206;-56
2023/12/26 16:07:17;;;;;;;4.50;1.17;;;8.90;99.90;;;;;;7359065;32;20221;-56
2023/12/26 16:11:19;;;;;;;7.03;1.77;;;8.90;99.90;;;;;;7361952;32;20104;-56
2023/12/26 16:15:21;;;;;;;5.18;1.30;;;8.90;99.90;;;;;;7360702;32;20146;-56
2023/12/26 16:19:23;;;;;;;10.05;1.95;;;8.80;99.90;;;;;;7360849;32;20195;-56
2023/12/26 16:23:25;;;;;;;7.07;2.08;;;8.80;99.90;;;;;;7369452;32;20656;-56
2023/12/26 16:27:27;;;;;;;6.55;1.48;;;8.80;99.90;;;;;;7368519;32;20099;-56
2023/12/26 16:31:32;;;;;;;9.70;2.10;;;8.80;99.90;;;;;;7361421;32;20130;-57
2023/12/26 16:35:34;;;;;;;10.52;1.80;;;8.80;99.90;;;;;;7359766;32;20471;-55
2023/12/26 16:39:35;;;;;;;7.28;2.10;;;8.90;99.90;;;;;;7361038;32;20216;-56
2023/12/26 16:43:37;;;;;;;15.48;3.55;;;8.80;99.90;;;;;;7360216;32;20217;-55
2023/12/26 16:47:39;;;;;;;13.93;4.15;;;8.80;99.90;;;;;;7360258;32;20178;-56
2023/12/26 16:51:41;;;;;;;8.65;2.35;;;8.80;99.90;;;;;;7367217;32;20126;-55
2023/12/26 16:55:43;;;;;;;6.57;1.70;;;8.80;99.90;;;;;;7360950;32;20938;-54
2023/12/26 16:59:47;;;;;;;8.07;1.60;;;8.80;99.90;;;;;;7361255;32;20166;-54
2023/12/26 17:03:49;;;;;;;10.52;2.10;;;8.70;99.90;;;;;;7366150;32;20213;-56
2023/12/26 17:07:50;;;;;;;9.07;1.62;;;8.60;99.90;;;;;;7361856;32;20202;-55
2023/12/26 17:11:52;;;;;;;10.77;1.95;;;8.60;99.90;;;;;;7359034;32;20111;-55
2023/12/26 17:15:54;;;;;;;10.98;1.50;;;8.60;99.90;;;;;;7368062;32;20107;-55
2023/12/26 17:19:56;;;;;;;12.48;2.10;;;8.60;99.90;;;;;;7360106;32;20134;-56
2023/12/26 17:23:58;;;;;;;7.43;1.42;;;8.60;99.90;;;;;;7363010;32;20240;-57
2023/12/26 17:28:03;;;;;;;10.05;1.80;;;8.50;99.90;;;;;;7358855;32;20199;-56
2023/12/26 17:32:05;;;;;;;12.75;2.05;;;8.60;99.90;;;;;;7357490;32;20202;-54
2023/12/26 17:36:07;;;;;;;8.77;2.05;;;8.60;99.90;;;;;;7357482;32;20145;-55
2023/12/26 17:40:09;;;;;;;11.57;2.30;;;8.60;99.90;;;;;;7355041;32;20272;-57
2023/12/26 17:44:13;;;;;;;12.68;1.75;;;8.60;99.90;;;;;;7353216;32;20252;-56
2023/12/26 17:48:15;;;;;;;11.02;1.83;;;8.50;99.90;;;;;;7360062;32;20353;-57
2023/12/26 17:52:17;;;;;;;10.07;2.00;;;8.50;99.90;;;;;;7348403;32;20549;-57
2023/12/26 17:56:19;;;;;;;8.23;2.22;;;8.50;99.90;;;;;;7352333;32;20118;-57
2023/12/26 18:00:21;;;;;;;12.55;2.45;;;8.50;99.90;;;;;;7350192;32;20429;-57
2023/12/26 18:04:23;;;;;;;11.93;2.85;;;8.40;99.90;;;;;;7349172;32;20262;-57
2023/12/26 18:08:25;;;;;;;12.73;2.20;;;8.40;99.90;;;;;;7347447;32;20149;-56
2023/12/26 18:12:27;;;;;;;17.00;2.53;;;8.40;99.90;;;;;;7356106;32;20194;-57
2023/12/26 18:16:29;;;;;;;11.80;2.20;;;8.30;99.90;;;;;;7350325;32;21120;-57
2023/12/26 18:20:31;;;;;;;6.65;1.50;;;8.20;99.90;;;;;;7348225;32;20573;-57
2023/12/26 18:24:33;;;;;;;9.63;1.48;;;8.20;99.90;;;;;;7355422;32;20111;-57
2023/12/26 18:28:35;;;;;;;7.87;1.58;;;8.20;99.90;;;;;;7356186;32;20240;-57
2023/12/26 18:32:37;;;;;;;5.93;1.45;;;8.20;99.90;;;;;;7353446;32;20279;-57
2023/12/26 18:36:39;;;;;;;8.02;1.52;;;8.20;99.90;;;;;;7334439;32;20276;-58
2023/12/26 18:40:43;;;;;;;6.55;1.70;;;8.10;99.90;;;;;;7358075;32;20441;-58
2023/12/26 18:44:45;;;;;;;10.65;2.28;;;8.00;99.90;;;;;;7354835;32;20211;-58
2023/12/26 18:48:47;;;;;;;6.93;2.50;;;7.90;99.90;;;;;;7352024;32;20235;-58
2023/12/26 18:52:50;;;;;;;15.27;2.90;;;7.80;99.90;;;;;;7349043;32;20293;-58
2023/12/26 18:56:52;;;;;;;8.85;2.60;;;7.70;99.90;;;;;;7354641;32;20253;-58
2023/12/26 19:00:53;;;;;;;13.60;3.35;;;7.70;99.90;;;;;;7359351;32;20206;-56
2023/12/26 19:04:55;;;;;;;13.02;3.35;;;7.70;99.90;;;;;;7358635;32;20265;-57
2023/12/26 19:08:57;;;;;;;13.93;3.25;;;7.80;99.90;;;;;;7351355;32;20208;-58
2023/12/26 19:13:00;;;;;;;9.93;3.20;;;7.80;99.90;;;;;;7342778;32;20365;-57
2023/12/26 19:17:02;;;;;;;13.80;4.10;;;7.90;99.90;;;;;;7341748;32;20249;-57
2023/12/26 19:21:04;;;;;;;15.60;3.95;;;7.90;99.90;;;;;;7354905;32;20219;-58
2023/12/26 19:25:07;;;;;;;13.45;3.75;;;7.80;99.90;;;;;;7360450;32;20206;-58
2023/12/26 19:29:09;;;;;;;14.85;3.30;;;8.00;99.90;;;;;;7362200;32;20337;-58
2023/12/26 19:33:11;;;;;;;12.18;3.47;;;8.00;99.90;;;;;;7363236;32;20111;-58
2023/12/26 19:37:13;;;;;;;13.43;2.78;;;8.00;99.90;;;;;;7363395;32;20222;-56
2023/12/26 19:41:15;;;;;;;12.85;3.10;;;8.00;99.90;;;;;;7367900;32;20685;-56
2023/12/26 19:45:17;;;;;;;9.27;3.35;;;8.00;99.90;;;;;;7361609;32;20227;-55
2023/12/26 19:49:21;;;;;;;8.10;2.90;;;8.00;99.90;;;;;;7359170;32;20126;-56
2023/12/26 19:53:23;;;;;;;10.10;3.33;;;8.00;99.90;;;;;;7365332;32;20141;-55
2023/12/26 19:57:26;;;;;;;11.30;2.92;;;8.00;99.90;;;;;;7364495;32;20466;-64
2023/12/26 20:01:28;;;;;;;9.32;2.75;;;8.00;99.90;;;;;;7367782;32;20107;-56
2023/12/26 20:05:30;;;;;;;10.70;3.15;;;8.10;99.90;;;;;;7361399;32;20246;-57
2023/12/26 20:09:32;;;;;;;9.95;3.12;;;8.10;99.90;;;;;;7348125;32;20122;-55
2023/12/26 20:13:34;;;;;;;16.75;3.03;;;8.10;99.90;;;;;;7360284;32;20522;-57
2023/12/26 20:17:36;;;;;;;12.65;2.58;;;8.00;99.90;;;;;;7366077;32;24100;-56
2023/12/26 20:21:38;;;;;;;9.70;2.97;;;8.00;99.90;;;;;;7355502;32;20478;-56
2023/12/26 20:25:39;;;;;;;12.68;2.65;;;8.00;99.90;;;;;;7359028;32;20270;-57
2023/12/26 20:29:41;;;;;;;14.27;3.25;;;8.00;99.90;;;;;;7361672;32;20576;-56
2023/12/26 20:33:43;;;;;;;10.25;3.03;;;8.00;99.90;;;;;;7361436;32;20508;-56
2023/12/26 20:37:46;;;;;;;21.77;4.60;;;8.00;99.90;;;;;;7354916;32;20228;-56
2023/12/26 20:41:50;;;;;;;11.85;3.42;;;7.90;99.90;;;;;;7357864;32;20117;-57
2023/12/26 20:45:52;;;;;;;10.48;3.40;;;7.90;99.90;;;;;;7360792;32;20111;-58
2023/12/26 20:49:54;;;;;;;11.65;2.97;;;7.90;99.90;;;;;;7358537;32;20212;-57
2023/12/26 20:53:56;;;;;;;12.35;2.80;;;7.90;99.90;;;;;;7358572;32;20348;-58
2023/12/26 20:57:58;;;;;;;14.23;3.15;;;7.90;99.90;;;;;;7362854;32;20112;-58
2023/12/26 21:02:00;;;;;;;12.10;2.95;;;7.90;99.90;;;;;;7362132;32;20649;-57
2023/12/26 21:06:02;;;;;;;10.82;2.80;;;7.80;99.90;;;;;;7364839;32;20147;-57
2023/12/26 21:10:06;;;;;;;7.53;2.62;;;7.80;99.90;;;;;;7356672;32;20110;-57
2023/12/26 21:14:13;;;;;;;9.02;2.65;;;7.80;99.90;;;;;;7360474;32;20233;-57
2023/12/26 21:18:15;;;;;;;10.53;2.70;;;7.80;99.90;;;;;;7362294;32;20106;-56
2023/12/26 21:22:17;;;;;;;11.20;2.35;;;7.70;99.90;;;;;;7358318;32;20312;-57
2023/12/26 21:26:22;;;;;;;12.90;2.60;;;7.80;99.90;;;;;;7364627;32;20186;-57
2023/12/26 21:30:24;;;;;;;12.10;2.65;;;7.80;99.90;;;;;;7366103;32;20115;-58
2023/12/26 21:34:26;;;;;;;11.15;2.90;;;7.60;99.90;;;;;;7360847;32;20187;-57
2023/12/26 21:38:27;;;;;;;10.75;2.62;;;7.50;99.90;;;;;;7355094;32;20439;-56
2023/12/26 21:42:29;;;;;;;10.98;2.45;;;7.50;99.90;;;;;;7359110;32;20150;-56
2023/12/26 21:46:31;;;;;;;9.15;1.98;;;7.30;99.90;;;;;;7357330;32;20258;-56
2023/12/26 21:50:33;;;;;;;10.13;2.10;;;7.30;99.90;;;;;;7362295;32;20103;-57
2023/12/26 21:54:39;;;;;;;8.52;2.35;;;7.20;99.90;;;;;;7352046;32;20126;-57
2023/12/26 21:58:41;;;;;;;12.37;2.40;;;7.00;99.90;;;;;;7363030;32;20754;-57
2023/12/26 22:02:43;;;;;;;12.82;2.87;;;6.80;99.90;;;;;;7363608;32;20159;-56
2023/12/26 22:06:46;;;;;;;9.50;2.62;;;6.70;99.90;;;;;;7365182;32;20166;-55
2023/12/26 22:10:48;;;;;;;10.32;2.65;;;6.70;99.90;;;;;;7359202;32;20611;-56
2023/12/26 22:14:53;;;;;;;10.27;2.00;;;6.40;99.90;;;;;;7355224;32;20117;-55
2023/12/26 22:19:00;;;;;;;12.13;2.85;;;6.40;99.90;;;;;;7365426;32;20523;-56
2023/12/26 22:23:02;;;;;;;7.05;2.40;;;6.20;99.90;;;;;;7360889;32;20616;-57
2023/12/26 22:27:04;;;;;;;11.12;2.65;;;6.00;99.90;;;;;;7363908;32;20103;-57
2023/12/26 22:31:15;;;;;;;11.95;2.87;;;6.00;99.90;;;;;;7371460;32;20201;-58
2023/12/26 22:35:17;;;;;;;13.40;2.58;;;5.90;99.90;;;;;;7367367;32;20201;-57
2023/12/26 22:39:19;;;;;;;10.27;2.65;;;5.70;99.90;;;;;;7360126;32;20532;-57
2023/12/26 22:43:21;;;;;;;11.07;2.58;;;5.60;99.90;;;;;;7364556;32;20156;-57
2023/12/26 22:47:23;;;;;;;12.18;2.83;;;5.50;99.90;;;;;;7362686;32;20170;-55
2023/12/26 22:51:24;;;;;;;9.55;2.50;;;5.40;99.90;;;;;;7361484;32;20134;-56
2023/12/26 22:55:26;;;;;;;10.75;2.42;;;5.30;99.90;;;;;;7355762;32;21969;-57
2023/12/26 22:59:28;;;;;;;7.03;1.75;;;5.20;99.90;;;;;;7366897;32;20153;-56
2023/12/26 23:03:30;;;;;;;9.90;2.40;;;5.20;99.90;;;;;;7366038;32;20581;-56
2023/12/26 23:07:32;;;;;;;9.63;2.00;;;5.10;99.90;;;;;;7356119;32;20107;-56
2023/12/26 23:11:33;;;;;;;10.13;2.47;;;5.00;99.90;;;;;;7360267;32;20174;-55
2023/12/26 23:15:35;;;;;;;12.27;2.62;;;5.00;99.90;;;;;;7361439;32;20202;-55
2023/12/26 23:19:37;;;;;;;10.63;2.60;;;4.90;99.90;;;;;;7359892;32;20224;-56
2023/12/26 23:23:39;;;;;;;8.07;2.03;;;5.00;99.90;;;;;;7372053;32;20137;-55
2023/12/26 23:27:40;;;;;;;12.57;2.40;;;4.90;99.90;;;;;;7363755;32;20715;-55
2023/12/26 23:31:44;;;;;;;5.93;1.90;;;4.90;99.90;;;;;;7365657;32;20672;-55
2023/12/26 23:35:46;;;;;;;6.65;1.80;;;4.80;99.90;;;;;;7359050;32;20304;-56
2023/12/26 23:39:48;;;;;;;10.93;1.83;;;4.90;99.90;;;;;;7369151;32;20182;-56
2023/12/26 23:43:49;;;;;;;12.00;2.10;;;4.90;99.90;;;;;;7364958;32;20226;-56
2023/12/26 23:47:51;;;;;;;10.18;2.17;;;4.80;99.90;;;;;;7369262;32;20365;-55
2023/12/26 23:51:54;;;;;;;10.35;2.30;;;4.90;99.90;;;;;;7362289;32;20107;-56
2023/12/26 23:55:56;;;;;;;13.18;2.30;;;4.80;99.90;;;;;;7368064;32;20174;-56
2023/12/26 23:59:59;;;;;;;10.10;2.35;;;4.70;99.90;;;;;;7363424;32;20643;-56
